createdAt,value
2022-08-19T00:00:15.631Z,7.13
2022-08-19T00:02:50.210Z,7.90
2022-08-19T00:05:20.887Z,7.53
2022-08-19T00:07:50.910Z,9.38
2022-08-19T00:10:21.599Z,8.85
2022-08-19T00:15:21.032Z,7.78
2022-08-19T00:17:49.579Z,7.47
2022-08-19T00:20:22.942Z,6.93
2022-08-19T00:22:51.469Z,7.88
2022-08-19T00:25:30.058Z,7.63
2022-08-19T00:27:59.953Z,8.73
2022-08-19T00:30:29.154Z,7.22
2022-08-19T00:32:58.944Z,7.22
2022-08-19T00:35:28.338Z,7.95
2022-08-19T00:37:57.132Z,7.32
2022-08-19T00:40:26.064Z,7.18
2022-08-19T00:42:54.951Z,7.85
2022-08-19T00:45:27.404Z,7.55
2022-08-19T00:47:55.695Z,7.85
2022-08-19T00:50:25.389Z,7.97
2022-08-19T00:52:54.524Z,7.72
2022-08-19T00:55:29.814Z,7.93
2022-08-19T00:58:02.458Z,8.10
2022-08-19T01:00:37.581Z,8.55
2022-08-19T01:03:11.238Z,7.85
2022-08-19T01:05:43.331Z,8.00
2022-08-19T01:08:13.284Z,8.45
2022-08-19T01:10:45.914Z,8.93
2022-08-19T01:13:21.758Z,7.88
2022-08-19T01:15:55.638Z,8.45
2022-08-19T01:18:26.016Z,8.05
2022-08-19T01:20:58.985Z,8.68
2022-08-19T01:23:43.606Z,9.07
2022-08-19T01:26:23.785Z,10.02
2022-08-19T01:28:59.603Z,8.48
2022-08-19T01:31:33.498Z,9.13
2022-08-19T01:34:02.998Z,9.50
2022-08-19T01:36:42.728Z,9.25
2022-08-19T01:39:17.254Z,8.65
2022-08-19T01:41:46.035Z,7.80
2022-08-19T01:44:18.834Z,7.53
2022-08-19T01:46:49.435Z,9.05
2022-08-19T01:49:20.382Z,9.52
2022-08-19T01:51:50.673Z,8.77
2022-08-19T01:54:27.012Z,8.90
2022-08-19T01:57:08.470Z,9.23
2022-08-19T01:59:37.649Z,9.88
2022-08-19T02:02:08.216Z,10.20
2022-08-19T02:04:39.075Z,9.88
2022-08-19T02:07:09.210Z,9.25
2022-08-19T02:09:38.072Z,9.98
2022-08-19T02:12:11.592Z,10.85
2022-08-19T02:14:40.025Z,11.13
2022-08-19T02:17:08.599Z,10.75
2022-08-19T02:19:39.490Z,10.35
2022-08-19T02:22:09.566Z,10.52
2022-08-19T02:24:37.932Z,9.43
2022-08-19T02:27:09.493Z,10.50
2022-08-19T02:29:38.002Z,10.25
2022-08-19T02:32:06.557Z,9.98
2022-08-19T02:34:35.614Z,10.35
2022-08-19T02:37:04.114Z,10.15
2022-08-19T02:39:33.058Z,9.18
2022-08-19T02:42:03.136Z,10.57
2022-08-19T02:44:34.678Z,9.57
2022-08-19T02:47:04.349Z,9.35
2022-08-19T02:49:34.557Z,9.00
2022-08-19T02:52:04.940Z,8.77
2022-08-19T02:54:33.775Z,9.10
2022-08-19T02:57:02.310Z,9.20
2022-08-19T02:59:32.082Z,9.38
2022-08-19T03:02:00.863Z,8.63
2022-08-19T03:04:30.667Z,8.40
2022-08-19T03:07:09.303Z,9.20
2022-08-19T03:12:08.196Z,9.65
2022-08-19T03:14:37.670Z,8.20
2022-08-19T03:17:06.496Z,9.35
2022-08-19T03:19:34.834Z,9.63
2022-08-19T03:22:05.270Z,7.95
2022-08-19T03:24:33.659Z,8.52
2022-08-19T03:27:03.670Z,8.57
2022-08-19T03:29:32.861Z,8.32
2022-08-19T03:32:05.123Z,8.05
2022-08-19T03:34:35.721Z,8.63
2022-08-19T03:37:08.153Z,8.93
2022-08-19T03:39:39.037Z,8.50
2022-08-19T03:42:32.362Z,8.55
2022-08-19T03:44:56.125Z,8.43
2022-08-19T03:47:24.417Z,8.55
2022-08-19T03:49:52.759Z,9.02
2022-08-19T03:52:21.194Z,8.98
2022-08-19T03:54:49.526Z,8.82
2022-08-19T03:57:18.272Z,8.43
2022-08-19T03:59:46.741Z,8.55
2022-08-19T04:02:15.401Z,8.30
2022-08-19T04:04:44.819Z,8.60
2022-08-19T04:07:17.129Z,8.40
2022-08-19T04:09:45.610Z,8.50
2022-08-19T04:12:14.050Z,8.68
2022-08-19T04:14:42.419Z,9.10
2022-08-19T04:17:14.003Z,9.80
2022-08-19T04:19:43.958Z,10.15
2022-08-19T04:22:13.612Z,9.52
2022-08-19T04:24:41.969Z,10.18
2022-08-19T04:27:10.447Z,9.75
2022-08-19T04:29:40.476Z,9.70
2022-08-19T04:32:09.947Z,9.75
2022-08-19T04:35:02.482Z,9.27
2022-08-19T04:37:34.887Z,10.73
2022-08-19T04:40:25.839Z,10.68
2022-08-19T04:42:55.463Z,10.75
2022-08-19T04:45:24.096Z,11.70
2022-08-19T04:47:58.688Z,12.82
2022-08-19T04:50:46.001Z,12.80
2022-08-19T04:53:14.521Z,11.90
2022-08-19T04:55:45.499Z,11.07
2022-08-19T04:58:14.129Z,11.38
2022-08-19T05:00:49.143Z,10.32
2022-08-19T05:03:18.459Z,11.27
2022-08-19T05:05:50.160Z,11.75
2022-08-19T05:08:30.738Z,11.23
2022-08-19T05:11:00.111Z,12.02
2022-08-19T05:13:28.712Z,11.80
2022-08-19T05:15:59.002Z,11.23
2022-08-19T05:18:51.325Z,11.30
2022-08-19T05:21:39.313Z,9.77
2022-08-19T05:24:10.414Z,10.23
2022-08-19T05:26:41.023Z,9.82
2022-08-19T05:29:11.315Z,10.50
2022-08-19T05:31:41.797Z,11.15
2022-08-19T05:36:50.818Z,11.02
2022-08-19T05:39:22.069Z,10.20
2022-08-19T05:41:54.281Z,10.00
2022-08-19T05:44:23.137Z,9.98
2022-08-19T05:46:54.143Z,10.05
2022-08-19T05:49:24.262Z,11.02
2022-08-19T05:51:52.810Z,12.65
2022-08-19T05:54:24.103Z,11.30
2022-08-19T05:56:54.273Z,11.55
2022-08-19T05:59:24.927Z,11.88
2022-08-19T06:04:24.363Z,9.77
2022-08-19T06:06:54.790Z,9.88
2022-08-19T06:09:25.795Z,9.80
2022-08-19T06:12:00.870Z,9.40
2022-08-19T06:14:35.567Z,8.43
2022-08-19T06:17:10.033Z,8.43
2022-08-19T06:19:40.928Z,7.35
2022-08-19T06:22:12.888Z,8.07
2022-08-19T06:24:41.314Z,8.13
2022-08-19T06:27:10.001Z,7.32
2022-08-19T06:29:38.886Z,8.35
2022-08-19T06:32:07.338Z,8.15
2022-08-19T06:34:36.225Z,7.80
2022-08-19T06:37:06.830Z,7.97
2022-08-19T06:42:10.314Z,7.80
2022-08-19T06:44:42.839Z,7.13
2022-08-19T06:47:23.572Z,7.53
2022-08-19T06:50:03.866Z,7.43
2022-08-19T06:52:36.694Z,7.57
2022-08-19T06:55:06.780Z,7.03
2022-08-19T06:57:35.467Z,8.05
2022-08-19T07:00:12.242Z,9.13
2022-08-19T07:02:46.299Z,8.63
2022-08-19T07:05:19.306Z,8.18
2022-08-19T07:07:49.350Z,8.43
2022-08-19T07:10:20.450Z,7.88
2022-08-19T07:12:51.049Z,8.25
2022-08-19T07:15:22.382Z,8.55
2022-08-19T07:17:52.927Z,8.90
2022-08-19T07:20:21.882Z,8.23
2022-08-19T07:22:57.088Z,8.10
2022-08-19T07:25:32.207Z,8.65
2022-08-19T07:28:02.534Z,8.40
2022-08-19T07:30:31.776Z,9.50
2022-08-19T07:33:06.535Z,8.55
2022-08-19T07:35:34.934Z,8.43
2022-08-19T07:38:05.668Z,7.70
2022-08-19T07:43:03.643Z,7.90
2022-08-19T07:45:33.509Z,8.15
2022-08-19T07:48:02.239Z,7.90
2022-08-19T07:50:30.909Z,8.05
2022-08-19T07:53:01.237Z,7.80
2022-08-19T07:55:41.495Z,7.22
2022-08-19T07:58:18.914Z,7.32
2022-08-19T08:00:49.756Z,7.38
2022-08-19T08:03:43.256Z,7.40
2022-08-19T08:06:30.754Z,7.00
2022-08-19T08:09:18.215Z,7.90
2022-08-19T08:11:51.163Z,6.93
2022-08-19T08:14:29.576Z,7.55
2022-08-19T08:17:10.661Z,7.40
2022-08-19T08:19:42.068Z,7.50
2022-08-19T08:22:34.653Z,7.35
2022-08-19T08:25:09.575Z,6.93
2022-08-19T08:27:40.569Z,7.72
2022-08-19T08:30:11.684Z,7.43
2022-08-19T08:32:40.853Z,6.82
2022-08-19T08:35:13.345Z,6.95
2022-08-19T08:37:41.835Z,7.35
2022-08-19T08:40:36.814Z,7.22
2022-08-19T08:43:38.879Z,8.05
2022-08-19T08:46:31.702Z,7.25
2022-08-19T08:49:23.063Z,7.28
2022-08-19T08:52:32.036Z,7.50
2022-08-19T08:55:20.482Z,8.10
2022-08-19T08:57:51.321Z,7.68
2022-08-19T09:00:23.760Z,7.75
2022-08-19T09:02:52.945Z,8.50
2022-08-19T09:05:26.900Z,8.13
2022-08-19T09:08:36.856Z,6.90
2022-08-19T09:11:09.654Z,7.00
2022-08-19T09:14:40.779Z,7.85
2022-08-19T09:17:09.027Z,7.97
2022-08-19T09:20:09.165Z,6.72
2022-08-19T09:22:39.330Z,8.13
2022-08-19T09:25:09.716Z,6.95
2022-08-19T09:30:19.398Z,7.00
2022-08-19T09:32:47.785Z,7.72
2022-08-19T09:35:23.925Z,7.13
2022-08-19T09:37:57.747Z,7.10
2022-08-19T09:40:30.229Z,5.78
2022-08-19T09:43:01.647Z,5.35
2022-08-19T09:45:30.682Z,4.80
2022-08-19T09:47:59.287Z,6.07
2022-08-19T09:50:51.707Z,5.28
2022-08-19T09:53:23.397Z,4.55
2022-08-19T09:55:58.654Z,4.60
2022-08-19T09:58:28.778Z,5.00
2022-08-19T10:00:59.772Z,3.22
2022-08-19T10:03:31.781Z,3.17
2022-08-19T10:06:05.677Z,3.92
2022-08-19T10:08:49.952Z,3.65
2022-08-19T10:11:27.371Z,4.30
2022-08-19T10:13:57.490Z,3.22
2022-08-19T10:16:30.483Z,3.75
2022-08-19T10:18:59.846Z,4.25
2022-08-19T10:21:35.593Z,3.78
2022-08-19T10:24:06.438Z,3.85
2022-08-19T10:26:39.276Z,3.50
2022-08-19T10:29:09.467Z,2.85
2022-08-19T10:31:59.942Z,3.55
2022-08-19T10:34:31.342Z,3.78
2022-08-19T10:37:01.886Z,3.30
2022-08-19T10:39:32.977Z,3.45
2022-08-19T10:42:12.682Z,3.55
2022-08-19T10:44:41.725Z,3.78
2022-08-19T10:47:17.704Z,4.05
2022-08-19T10:50:13.694Z,3.50
2022-08-19T10:52:50.850Z,3.70
2022-08-19T10:55:41.861Z,3.47
2022-08-19T10:58:23.127Z,3.20
2022-08-19T11:00:57.905Z,2.60
2022-08-19T11:03:28.906Z,3.25
2022-08-19T11:06:07.024Z,3.33
2022-08-19T11:08:38.521Z,2.70
2022-08-19T11:11:08.010Z,3.88
2022-08-19T11:13:38.723Z,4.13
2022-08-19T11:16:09.028Z,4.45
2022-08-19T11:18:43.828Z,4.05
2022-08-19T11:21:22.889Z,3.95
2022-08-19T11:23:54.639Z,3.70
2022-08-19T11:26:25.154Z,4.60
2022-08-19T11:28:57.039Z,3.72
2022-08-19T11:31:29.085Z,4.15
2022-08-19T11:34:05.034Z,4.70
2022-08-19T11:36:34.991Z,4.05
2022-08-19T11:39:05.803Z,4.18
2022-08-19T11:41:34.855Z,4.90
2022-08-19T11:44:05.465Z,4.75
2022-08-19T11:46:33.847Z,6.22
2022-08-19T11:49:03.915Z,5.32
2022-08-19T11:51:33.407Z,4.43
2022-08-19T11:54:02.602Z,4.57
2022-08-19T11:56:30.937Z,5.60
2022-08-19T11:58:59.709Z,5.82
2022-08-19T12:01:28.235Z,5.28
2022-08-19T12:03:59.153Z,5.82
2022-08-19T12:06:34.978Z,5.60
2022-08-19T12:09:16.568Z,5.40
2022-08-19T12:11:45.058Z,4.97
2022-08-19T12:14:15.349Z,5.95
2022-08-19T12:16:49.187Z,7.18
2022-08-19T12:19:22.372Z,6.15
2022-08-19T12:21:52.311Z,6.43
2022-08-19T12:24:24.161Z,7.15
2022-08-19T12:26:53.960Z,7.18
2022-08-19T12:29:25.093Z,6.82
2022-08-19T12:31:53.894Z,6.25
2022-08-19T12:34:22.331Z,6.03
2022-08-19T12:36:50.781Z,7.03
2022-08-19T12:39:19.241Z,7.13
2022-08-19T12:41:51.377Z,6.05
2022-08-19T12:44:29.508Z,5.82
2022-08-19T12:47:00.926Z,5.85
2022-08-19T12:49:54.204Z,5.00
2022-08-19T12:52:25.668Z,4.72
2022-08-19T12:54:56.264Z,4.47
2022-08-19T12:57:31.886Z,4.75
2022-08-19T13:00:06.678Z,4.68
2022-08-19T13:02:38.343Z,5.28
2022-08-19T13:05:10.892Z,5.47
2022-08-19T13:07:41.085Z,7.28
2022-08-19T13:10:13.479Z,6.38
2022-08-19T13:12:43.069Z,5.95
2022-08-19T13:15:12.721Z,5.43
2022-08-19T13:17:43.495Z,6.57
2022-08-19T13:20:12.418Z,6.18
2022-08-19T13:22:40.897Z,7.13
2022-08-19T13:25:09.900Z,5.82
2022-08-19T13:27:40.906Z,6.07
2022-08-19T13:30:30.317Z,5.70
2022-08-19T13:33:16.093Z,5.40
2022-08-19T13:35:51.503Z,6.00
2022-08-19T13:38:22.414Z,5.18
2022-08-19T13:40:53.483Z,6.90
2022-08-19T13:43:24.425Z,6.47
2022-08-19T13:45:57.635Z,6.28
2022-08-19T13:48:28.836Z,6.88
2022-08-19T13:50:57.269Z,5.38
2022-08-19T13:53:25.874Z,4.45
2022-08-19T13:55:55.078Z,8.57
2022-08-19T13:58:23.847Z,14.23
2022-08-19T14:00:52.430Z,12.00
2022-08-19T14:03:20.760Z,14.20
2022-08-19T14:05:49.335Z,15.95
2022-08-19T14:08:18.306Z,15.43
2022-08-19T14:10:49.388Z,13.55
2022-08-19T14:13:21.554Z,13.13
2022-08-19T14:15:50.490Z,14.38
2022-08-19T14:18:29.481Z,11.60
2022-08-19T14:21:01.554Z,11.68
2022-08-19T14:23:30.387Z,9.65
2022-08-19T14:26:10.489Z,11.35
2022-08-19T14:28:42.409Z,12.45
2022-08-19T14:31:20.066Z,13.10
2022-08-19T14:33:49.082Z,14.65
2022-08-19T14:36:21.236Z,14.95
2022-08-19T14:38:49.935Z,14.38
2022-08-19T14:41:23.180Z,13.52
2022-08-19T14:43:53.519Z,12.23
2022-08-19T14:46:26.231Z,14.75
2022-08-19T14:48:56.919Z,11.57
2022-08-19T14:51:27.809Z,11.90
2022-08-19T14:53:56.440Z,10.75
2022-08-19T14:56:28.448Z,10.25
2022-08-19T14:59:02.048Z,10.20
2022-08-19T15:01:30.786Z,9.98
2022-08-19T15:04:00.037Z,8.32
2022-08-19T15:06:29.335Z,8.32
2022-08-19T15:09:00.723Z,8.05
2022-08-19T15:11:33.763Z,9.73
2022-08-19T15:14:02.725Z,10.20
2022-08-19T15:16:31.110Z,8.30
2022-08-19T15:19:00.845Z,8.38
2022-08-19T15:21:31.255Z,9.02
2022-08-19T15:24:01.760Z,8.23
2022-08-19T15:29:12.869Z,8.68
2022-08-19T15:31:41.412Z,9.60
2022-08-19T15:34:14.170Z,10.45
2022-08-19T15:36:42.567Z,10.80
2022-08-19T15:39:11.057Z,9.63
2022-08-19T15:41:41.069Z,9.70
2022-08-19T15:44:13.364Z,9.98
2022-08-19T15:46:46.862Z,9.43
2022-08-19T15:49:18.764Z,10.90
2022-08-19T15:51:49.558Z,10.75
2022-08-19T15:54:21.684Z,9.40
2022-08-19T15:57:10.688Z,10.68
2022-08-19T16:00:02.501Z,10.20
2022-08-19T16:02:53.757Z,10.45
2022-08-19T16:05:45.253Z,10.23
2022-08-19T16:08:13.686Z,9.80
2022-08-19T16:10:42.114Z,9.15
2022-08-19T16:13:12.169Z,10.85
2022-08-19T16:15:43.381Z,8.88
2022-08-19T16:18:13.037Z,9.05
2022-08-19T16:20:41.500Z,7.80
2022-08-19T16:23:10.602Z,7.93
2022-08-19T16:25:39.649Z,8.05
2022-08-19T16:28:11.235Z,7.95
2022-08-19T16:30:42.895Z,8.57
2022-08-19T16:33:19.946Z,9.15
2022-08-19T16:35:56.100Z,9.23
2022-08-19T16:38:29.045Z,9.48
2022-08-19T16:41:01.610Z,9.98
2022-08-19T16:43:31.326Z,8.48
2022-08-19T16:46:00.837Z,8.25
2022-08-19T16:48:30.707Z,9.10
2022-08-19T16:51:01.577Z,8.95
2022-08-19T16:53:32.070Z,10.32
2022-08-19T16:56:03.954Z,9.52
2022-08-19T16:58:34.174Z,9.50
2022-08-19T17:01:07.175Z,8.32
2022-08-19T17:03:37.540Z,7.05
2022-08-19T17:06:20.999Z,7.90
2022-08-19T17:08:52.307Z,6.57
2022-08-19T17:11:22.627Z,7.05
2022-08-19T17:13:51.116Z,7.95
2022-08-19T17:16:26.439Z,6.55
2022-08-19T17:18:57.057Z,6.78
2022-08-19T17:21:31.100Z,5.75
2022-08-19T17:24:02.148Z,6.75
2022-08-19T17:26:31.341Z,5.88
2022-08-19T17:29:02.428Z,5.95
2022-08-19T17:31:31.780Z,6.97
2022-08-19T17:34:01.094Z,7.87
2022-08-19T17:36:33.468Z,9.75
2022-08-19T17:39:04.318Z,8.20
2022-08-19T17:41:34.248Z,8.90
2022-08-19T17:44:04.099Z,9.38
2022-08-19T17:46:34.188Z,10.52
2022-08-19T17:49:06.884Z,10.38
2022-08-19T17:51:36.001Z,11.80
2022-08-19T17:54:06.532Z,11.10
2022-08-19T17:59:03.220Z,13.32
2022-08-19T18:01:51.998Z,15.88
2022-08-19T18:04:25.223Z,15.10
2022-08-19T18:06:55.594Z,14.55
2022-08-19T18:09:38.711Z,16.67
2022-08-19T18:12:14.007Z,21.45
2022-08-19T18:14:42.800Z,18.63
2022-08-19T18:17:14.219Z,17.80
2022-08-19T18:19:44.185Z,17.75
2022-08-19T18:22:22.705Z,13.35
2022-08-19T18:24:51.745Z,11.77
2022-08-19T18:27:20.204Z,9.90
2022-08-19T18:29:48.735Z,11.18
2022-08-19T18:32:21.245Z,8.88
2022-08-19T18:34:54.774Z,13.15
2022-08-19T18:37:25.890Z,12.52
2022-08-19T18:40:13.080Z,10.82
2022-08-19T18:43:04.197Z,11.50
2022-08-19T18:45:51.321Z,10.07
2022-08-19T18:48:38.601Z,8.43
2022-08-19T18:51:07.409Z,9.40
2022-08-19T18:53:40.909Z,8.73
2022-08-19T18:56:15.374Z,9.57
2022-08-19T18:58:44.393Z,10.98
2022-08-19T19:01:16.808Z,12.40
2022-08-19T19:03:49.644Z,11.80
2022-08-19T19:06:22.430Z,10.88
2022-08-19T19:08:53.209Z,11.32
2022-08-19T19:11:27.767Z,10.77
2022-08-19T19:13:56.261Z,11.55
2022-08-19T19:16:24.990Z,10.82
2022-08-19T19:18:53.441Z,13.27
2022-08-19T19:21:23.754Z,12.48
2022-08-19T19:23:54.455Z,12.88
2022-08-19T19:26:23.393Z,15.65
2022-08-19T19:28:51.732Z,14.73
2022-08-19T19:31:26.717Z,15.75
2022-08-19T19:33:56.686Z,14.43
2022-08-19T19:36:26.091Z,17.45
2022-08-19T19:38:54.584Z,16.75
2022-08-19T19:41:24.732Z,19.17
2022-08-19T19:44:16.408Z,15.98
2022-08-19T19:46:45.220Z,13.32
2022-08-19T19:49:14.246Z,14.23
2022-08-19T19:51:43.452Z,11.35
2022-08-19T19:54:19.550Z,11.57
2022-08-19T19:56:50.475Z,12.50
2022-08-19T19:59:18.990Z,11.27
2022-08-19T20:01:47.489Z,12.73
2022-08-19T20:04:19.534Z,12.05
2022-08-19T20:06:48.426Z,13.00
2022-08-19T20:09:19.865Z,12.10
2022-08-19T20:11:53.425Z,12.52
2022-08-19T20:14:30.554Z,12.60
2022-08-19T20:16:59.944Z,12.88
2022-08-19T20:19:37.231Z,13.70
2022-08-19T20:22:06.568Z,11.15
2022-08-19T20:24:36.515Z,12.75
2022-08-19T20:27:05.779Z,13.15
2022-08-19T20:32:10.031Z,11.73
2022-08-19T20:34:41.650Z,10.88
2022-08-19T20:37:10.184Z,12.60
2022-08-19T20:39:38.630Z,11.30
2022-08-19T20:42:07.222Z,11.18
2022-08-19T20:44:35.899Z,12.43
2022-08-19T20:47:06.797Z,11.63
2022-08-19T20:49:35.953Z,11.57
2022-08-19T20:52:05.781Z,12.68
2022-08-19T20:54:40.512Z,12.80
2022-08-19T20:57:11.081Z,14.18
2022-08-19T21:02:08.117Z,12.68
2022-08-19T21:04:36.583Z,12.73
2022-08-19T21:07:07.896Z,13.13
2022-08-19T21:09:37.873Z,12.63
2022-08-19T21:12:08.642Z,12.80
2022-08-19T21:14:42.255Z,13.77
2022-08-19T21:17:10.813Z,11.88
2022-08-19T21:19:39.263Z,12.68
2022-08-19T21:22:08.970Z,11.93
2022-08-19T21:24:38.212Z,12.27
2022-08-19T21:27:07.363Z,12.57
2022-08-19T21:29:37.626Z,12.38
2022-08-19T21:32:06.948Z,13.90
2022-08-19T21:34:37.520Z,14.35
2022-08-19T21:39:40.611Z,12.70
2022-08-19T21:42:12.009Z,14.10
2022-08-19T21:44:48.473Z,15.18
2022-08-19T21:47:16.929Z,12.82
2022-08-19T21:49:45.464Z,12.75
2022-08-19T21:52:14.155Z,12.32
2022-08-19T21:54:43.733Z,12.40
2022-08-19T21:57:12.434Z,12.73
2022-08-19T21:59:43.703Z,13.57
2022-08-19T22:02:21.547Z,11.88
2022-08-19T22:04:52.771Z,12.25
2022-08-19T22:07:22.238Z,13.20
2022-08-19T22:09:51.767Z,13.98
2022-08-19T22:12:32.894Z,11.75
2022-08-19T22:15:02.237Z,11.63
2022-08-19T22:17:33.286Z,12.25
2022-08-19T22:20:04.311Z,13.10
2022-08-19T22:22:35.066Z,13.23
2022-08-19T22:25:12.642Z,12.50
2022-08-19T22:28:00.560Z,14.38
2022-08-19T22:30:33.781Z,14.88
2022-08-19T22:33:06.659Z,12.38
2022-08-19T22:35:38.210Z,12.60
2022-08-19T22:38:08.716Z,12.23
2022-08-19T22:45:44.771Z,12.23
2022-08-19T22:48:15.519Z,15.35
2022-08-19T22:51:05.346Z,14.80
2022-08-19T22:53:41.347Z,12.35
2022-08-19T22:56:15.325Z,12.38
2022-08-19T22:58:46.989Z,12.55
2022-08-19T23:01:27.096Z,12.80
2022-08-19T23:03:59.639Z,12.13
2022-08-19T23:06:33.532Z,12.13
2022-08-19T23:09:07.251Z,13.00
2022-08-19T23:11:42.219Z,13.00
2022-08-19T23:14:12.652Z,12.48
2022-08-19T23:16:42.212Z,11.18
2022-08-19T23:19:11.416Z,12.00
2022-08-19T23:21:41.965Z,12.48
2022-08-19T23:26:59.628Z,13.00
2022-08-19T23:29:48.510Z,11.55
2022-08-19T23:32:18.386Z,11.35
2022-08-19T23:34:46.993Z,12.32
2022-08-19T23:37:15.945Z,12.43
2022-08-19T23:39:44.627Z,10.73
2022-08-19T23:42:13.703Z,11.48
2022-08-19T23:44:52.366Z,12.68
2022-08-19T23:47:21.682Z,10.60
2022-08-19T23:49:50.725Z,12.35
2022-08-19T23:52:20.212Z,12.35
2022-08-19T23:54:48.557Z,10.55
2022-08-19T23:57:16.897Z,9.77
2022-08-19T23:59:45.748Z,9.88
